sensor_id;sensor_type;location;lat;lon;timestamp;P1;durP1;ratioP1;P2;durP2;ratioP2
41556;SDS011;27720;51.992;5.890;2022-10-20T00:00:11;6.38;;;2.70;;
41556;SDS011;27720;51.992;5.890;2022-10-20T00:02:37;4.70;;;2.70;;
41556;SDS011;27720;51.992;5.890;2022-10-20T00:05:03;4.65;;;2.92;;
41556;SDS011;27720;51.992;5.890;2022-10-20T00:07:29;7.85;;;2.92;;
41556;SDS011;27720;51.992;5.890;2022-10-20T00:09:55;7.30;;;2.72;;
41556;SDS011;27720;51.992;5.890;2022-10-20T00:12:20;4.28;;;2.30;;
41556;SDS011;27720;51.992;5.890;2022-10-20T00:14:46;8.43;;;3.00;;
41556;SDS011;27720;51.992;5.890;2022-10-20T00:17:12;5.30;;;2.78;;
41556;SDS011;27720;51.992;5.890;2022-10-20T00:19:38;8.02;;;3.35;;
41556;SDS011;27720;51.992;5.890;2022-10-20T00:22:03;5.18;;;3.10;;
41556;SDS011;27720;51.992;5.890;2022-10-20T00:24:29;5.32;;;3.13;;
41556;SDS011;27720;51.992;5.890;2022-10-20T00:26:55;7.03;;;3.13;;
41556;SDS011;27720;51.992;5.890;2022-10-20T00:29:20;6.95;;;3.25;;
41556;SDS011;27720;51.992;5.890;2022-10-20T00:31:46;8.45;;;3.40;;
41556;SDS011;27720;51.992;5.890;2022-10-20T00:34:12;13.70;;;3.03;;
41556;SDS011;27720;51.992;5.890;2022-10-20T00:36:38;8.80;;;3.38;;
41556;SDS011;27720;51.992;5.890;2022-10-20T00:39:04;4.78;;;2.13;;
41556;SDS011;27720;51.992;5.890;2022-10-20T00:41:33;5.28;;;2.67;;
41556;SDS011;27720;51.992;5.890;2022-10-20T00:44:00;4.38;;;3.00;;
41556;SDS011;27720;51.992;5.890;2022-10-20T00:46:46;5.05;;;2.80;;
41556;SDS011;27720;51.992;5.890;2022-10-20T00:49:17;8.10;;;3.47;;
41556;SDS011;27720;51.992;5.890;2022-10-20T00:51:48;4.57;;;2.60;;
41556;SDS011;27720;51.992;5.890;2022-10-20T00:54:23;4.82;;;2.80;;
41556;SDS011;27720;51.992;5.890;2022-10-20T00:56:53;5.90;;;3.03;;
41556;SDS011;27720;51.992;5.890;2022-10-20T00:59:21;7.63;;;3.25;;
41556;SDS011;27720;51.992;5.890;2022-10-20T01:01:55;5.50;;;2.40;;
41556;SDS011;27720;51.992;5.890;2022-10-20T01:04:21;6.00;;;3.53;;
41556;SDS011;27720;51.992;5.890;2022-10-20T01:06:48;5.45;;;3.17;;
41556;SDS011;27720;51.992;5.890;2022-10-20T01:09:15;8.25;;;2.58;;
41556;SDS011;27720;51.992;5.890;2022-10-20T01:11:47;5.75;;;2.85;;
41556;SDS011;27720;51.992;5.890;2022-10-20T01:35:21;6.28;;;2.90;;
41556;SDS011;27720;51.992;5.890;2022-10-20T01:41:01;7.60;;;3.25;;
41556;SDS011;27720;51.992;5.890;2022-10-20T01:43:53;7.93;;;3.25;;
41556;SDS011;27720;51.992;5.890;2022-10-20T01:46:20;8.35;;;3.90;;
41556;SDS011;27720;51.992;5.890;2022-10-20T01:48:50;4.00;;;2.67;;
41556;SDS011;27720;51.992;5.890;2022-10-20T01:51:16;5.68;;;2.88;;
41556;SDS011;27720;51.992;5.890;2022-10-20T01:53:42;5.03;;;3.00;;
41556;SDS011;27720;51.992;5.890;2022-10-20T01:56:15;6.40;;;2.63;;
41556;SDS011;27720;51.992;5.890;2022-10-20T02:07:34;7.70;;;3.60;;
41556;SDS011;27720;51.992;5.890;2022-10-20T02:10:17;5.32;;;3.17;;
41556;SDS011;27720;51.992;5.890;2022-10-20T02:12:46;4.43;;;2.90;;
41556;SDS011;27720;51.992;5.890;2022-10-20T02:15:18;6.13;;;3.30;;
41556;SDS011;27720;51.992;5.890;2022-10-20T02:17:48;6.93;;;3.65;;
41556;SDS011;27720;51.992;5.890;2022-10-20T02:20:17;5.07;;;3.15;;
41556;SDS011;27720;51.992;5.890;2022-10-20T02:22:43;6.10;;;2.97;;
41556;SDS011;27720;51.992;5.890;2022-10-20T02:25:10;4.15;;;2.28;;
41556;SDS011;27720;51.992;5.890;2022-10-20T02:27:38;6.93;;;3.25;;
41556;SDS011;27720;51.992;5.890;2022-10-20T02:30:07;5.50;;;3.38;;
41556;SDS011;27720;51.992;5.890;2022-10-20T02:32:36;6.15;;;2.88;;
41556;SDS011;27720;51.992;5.890;2022-10-20T02:35:04;11.90;;;3.38;;
41556;SDS011;27720;51.992;5.890;2022-10-20T02:37:33;5.50;;;3.33;;
41556;SDS011;27720;51.992;5.890;2022-10-20T02:39:59;5.68;;;3.42;;
41556;SDS011;27720;51.992;5.890;2022-10-20T02:42:28;6.78;;;2.90;;
41556;SDS011;27720;51.992;5.890;2022-10-20T02:44:54;7.35;;;3.63;;
41556;SDS011;27720;51.992;5.890;2022-10-20T02:47:20;5.18;;;3.40;;
41556;SDS011;27720;51.992;5.890;2022-10-20T02:49:47;9.43;;;2.92;;
41556;SDS011;27720;51.992;5.890;2022-10-20T02:52:13;7.13;;;2.97;;
41556;SDS011;27720;51.992;5.890;2022-10-20T02:54:39;5.20;;;2.92;;
41556;SDS011;27720;51.992;5.890;2022-10-20T02:57:06;6.07;;;3.00;;
41556;SDS011;27720;51.992;5.890;2022-10-20T02:59:32;7.00;;;2.80;;
41556;SDS011;27720;51.992;5.890;2022-10-20T03:01:57;6.47;;;3.13;;
41556;SDS011;27720;51.992;5.890;2022-10-20T03:04:23;4.70;;;2.90;;
41556;SDS011;27720;51.992;5.890;2022-10-20T03:06:49;5.53;;;3.17;;
41556;SDS011;27720;51.992;5.890;2022-10-20T03:09:15;3.70;;;2.58;;
41556;SDS011;27720;51.992;5.890;2022-10-20T03:11:41;8.60;;;3.05;;
41556;SDS011;27720;51.992;5.890;2022-10-20T03:14:06;5.80;;;2.83;;
41556;SDS011;27720;51.992;5.890;2022-10-20T03:16:32;9.90;;;3.20;;
41556;SDS011;27720;51.992;5.890;2022-10-20T03:18:58;7.97;;;3.80;;
41556;SDS011;27720;51.992;5.890;2022-10-20T03:21:24;5.78;;;3.28;;
41556;SDS011;27720;51.992;5.890;2022-10-20T03:23:50;7.20;;;3.13;;
41556;SDS011;27720;51.992;5.890;2022-10-20T03:26:15;4.18;;;2.30;;
41556;SDS011;27720;51.992;5.890;2022-10-20T03:28:45;4.20;;;2.38;;
41556;SDS011;27720;51.992;5.890;2022-10-20T03:31:11;7.13;;;2.97;;
41556;SDS011;27720;51.992;5.890;2022-10-20T03:33:37;6.65;;;2.92;;
41556;SDS011;27720;51.992;5.890;2022-10-20T03:36:03;5.03;;;3.28;;
41556;SDS011;27720;51.992;5.890;2022-10-20T03:38:29;6.97;;;2.88;;
41556;SDS011;27720;51.992;5.890;2022-10-20T03:40:54;5.18;;;2.78;;
41556;SDS011;27720;51.992;5.890;2022-10-20T03:43:20;6.75;;;2.42;;
41556;SDS011;27720;51.992;5.890;2022-10-20T03:45:46;7.13;;;3.42;;
41556;SDS011;27720;51.992;5.890;2022-10-20T03:48:12;4.90;;;2.92;;
41556;SDS011;27720;51.992;5.890;2022-10-20T03:50:38;4.78;;;2.90;;
41556;SDS011;27720;51.992;5.890;2022-10-20T03:53:05;7.93;;;3.53;;
41556;SDS011;27720;51.992;5.890;2022-10-20T03:55:31;6.18;;;2.97;;
41556;SDS011;27720;51.992;5.890;2022-10-20T03:58:00;9.00;;;3.35;;
41556;SDS011;27720;51.992;5.890;2022-10-20T04:00:26;7.80;;;3.50;;
41556;SDS011;27720;51.992;5.890;2022-10-20T04:02:51;8.88;;;3.17;;
41556;SDS011;27720;51.992;5.890;2022-10-20T04:05:18;7.50;;;3.05;;
41556;SDS011;27720;51.992;5.890;2022-10-20T04:07:45;10.93;;;3.47;;
41556;SDS011;27720;51.992;5.890;2022-10-20T04:10:11;6.55;;;3.33;;
41556;SDS011;27720;51.992;5.890;2022-10-20T04:12:38;5.63;;;3.08;;
41556;SDS011;27720;51.992;5.890;2022-10-20T04:15:05;6.05;;;3.05;;
41556;SDS011;27720;51.992;5.890;2022-10-20T04:17:32;5.90;;;3.47;;
41556;SDS011;27720;51.992;5.890;2022-10-20T04:19:58;6.35;;;3.45;;
41556;SDS011;27720;51.992;5.890;2022-10-20T04:22:24;6.38;;;3.05;;
41556;SDS011;27720;51.992;5.890;2022-10-20T04:24:49;5.18;;;3.05;;
41556;SDS011;27720;51.992;5.890;2022-10-20T04:27:15;5.07;;;2.92;;
41556;SDS011;27720;51.992;5.890;2022-10-20T04:29:41;5.10;;;3.38;;
41556;SDS011;27720;51.992;5.890;2022-10-20T04:32:07;6.72;;;3.30;;
41556;SDS011;27720;51.992;5.890;2022-10-20T04:34:32;5.10;;;2.78;;
41556;SDS011;27720;51.992;5.890;2022-10-20T04:36:59;7.10;;;3.15;;
41556;SDS011;27720;51.992;5.890;2022-10-20T04:39:24;5.13;;;3.30;;
41556;SDS011;27720;51.992;5.890;2022-10-20T04:41:50;6.90;;;3.58;;
41556;SDS011;27720;51.992;5.890;2022-10-20T04:44:16;7.40;;;3.00;;
41556;SDS011;27720;51.992;5.890;2022-10-20T04:46:42;7.78;;;3.47;;
41556;SDS011;27720;51.992;5.890;2022-10-20T04:49:08;6.55;;;3.70;;
41556;SDS011;27720;51.992;5.890;2022-10-20T04:51:34;7.18;;;3.95;;
41556;SDS011;27720;51.992;5.890;2022-10-20T04:54:00;7.00;;;3.35;;
41556;SDS011;27720;51.992;5.890;2022-10-20T04:56:26;8.75;;;4.10;;
41556;SDS011;27720;51.992;5.890;2022-10-20T04:58:52;7.00;;;3.75;;
41556;SDS011;27720;51.992;5.890;2022-10-20T05:01:20;8.00;;;4.03;;
41556;SDS011;27720;51.992;5.890;2022-10-20T05:03:47;5.10;;;3.50;;
41556;SDS011;27720;51.992;5.890;2022-10-20T05:06:20;7.07;;;3.90;;
41556;SDS011;27720;51.992;5.890;2022-10-20T05:08:49;7.22;;;3.92;;
41556;SDS011;27720;51.992;5.890;2022-10-20T05:11:16;5.72;;;3.67;;
41556;SDS011;27720;51.992;5.890;2022-10-20T05:13:43;6.90;;;3.95;;
41556;SDS011;27720;51.992;5.890;2022-10-20T05:16:09;8.18;;;4.43;;
41556;SDS011;27720;51.992;5.890;2022-10-20T05:18:35;9.45;;;4.22;;
41556;SDS011;27720;51.992;5.890;2022-10-20T05:21:06;7.22;;;4.40;;
41556;SDS011;27720;51.992;5.890;2022-10-20T05:23:33;11.27;;;3.83;;
41556;SDS011;27720;51.992;5.890;2022-10-20T05:26:03;7.00;;;3.72;;
41556;SDS011;27720;51.992;5.890;2022-10-20T05:28:30;6.15;;;3.55;;
41556;SDS011;27720;51.992;5.890;2022-10-20T05:30:59;10.95;;;4.00;;
41556;SDS011;27720;51.992;5.890;2022-10-20T05:33:27;8.50;;;4.43;;
41556;SDS011;27720;51.992;5.890;2022-10-20T05:35:53;4.82;;;2.78;;
41556;SDS011;27720;51.992;5.890;2022-10-20T05:38:19;7.90;;;4.10;;
41556;SDS011;27720;51.992;5.890;2022-10-20T05:40:45;6.07;;;4.13;;
41556;SDS011;27720;51.992;5.890;2022-10-20T05:43:10;9.82;;;4.70;;
41556;SDS011;27720;51.992;5.890;2022-10-20T05:45:36;7.00;;;4.78;;
41556;SDS011;27720;51.992;5.890;2022-10-20T05:48:02;6.82;;;4.20;;
41556;SDS011;27720;51.992;5.890;2022-10-20T05:50:27;6.13;;;3.58;;
41556;SDS011;27720;51.992;5.890;2022-10-20T05:52:53;6.53;;;3.92;;
41556;SDS011;27720;51.992;5.890;2022-10-20T05:55:19;7.30;;;3.97;;
41556;SDS011;27720;51.992;5.890;2022-10-20T05:57:47;7.65;;;3.85;;
41556;SDS011;27720;51.992;5.890;2022-10-20T06:00:13;10.15;;;4.15;;
41556;SDS011;27720;51.992;5.890;2022-10-20T06:02:42;7.35;;;3.75;;
41556;SDS011;27720;51.992;5.890;2022-10-20T06:05:08;9.00;;;4.22;;
41556;SDS011;27720;51.992;5.890;2022-10-20T06:07:33;10.35;;;4.90;;
41556;SDS011;27720;51.992;5.890;2022-10-20T06:09:59;8.40;;;4.15;;
41556;SDS011;27720;51.992;5.890;2022-10-20T06:12:25;7.05;;;3.90;;
41556;SDS011;27720;51.992;5.890;2022-10-20T06:14:51;6.53;;;4.72;;
41556;SDS011;27720;51.992;5.890;2022-10-20T06:17:16;6.95;;;3.72;;
41556;SDS011;27720;51.992;5.890;2022-10-20T06:19:42;7.15;;;4.28;;
41556;SDS011;27720;51.992;5.890;2022-10-20T06:22:11;11.10;;;4.13;;
41556;SDS011;27720;51.992;5.890;2022-10-20T06:24:37;8.57;;;3.88;;
41556;SDS011;27720;51.992;5.890;2022-10-20T06:27:03;11.90;;;4.60;;
41556;SDS011;27720;51.992;5.890;2022-10-20T06:29:29;13.65;;;4.38;;
41556;SDS011;27720;51.992;5.890;2022-10-20T06:31:54;9.55;;;4.82;;
41556;SDS011;27720;51.992;5.890;2022-10-20T06:34:21;8.77;;;4.55;;
41556;SDS011;27720;51.992;5.890;2022-10-20T06:36:49;7.55;;;4.50;;
41556;SDS011;27720;51.992;5.890;2022-10-20T06:39:16;8.50;;;4.10;;
41556;SDS011;27720;51.992;5.890;2022-10-20T06:41:47;6.63;;;4.22;;
41556;SDS011;27720;51.992;5.890;2022-10-20T06:44:17;9.25;;;4.40;;
41556;SDS011;27720;51.992;5.890;2022-10-20T10:57:12;9.63;;;5.53;;
41556;SDS011;27720;51.992;5.890;2022-10-20T10:59:40;8.73;;;5.22;;
41556;SDS011;27720;51.992;5.890;2022-10-20T11:02:17;8.15;;;5.05;;
41556;SDS011;27720;51.992;5.890;2022-10-20T11:15:40;10.90;;;5.82;;
41556;SDS011;27720;51.992;5.890;2022-10-20T11:26:38;7.00;;;4.28;;
41556;SDS011;27720;51.992;5.890;2022-10-20T11:29:15;10.52;;;4.75;;
41556;SDS011;27720;51.992;5.890;2022-10-20T11:34:58;15.05;;;5.30;;
41556;SDS011;27720;51.992;5.890;2022-10-20T11:38:14;8.45;;;4.55;;
41556;SDS011;27720;51.992;5.890;2022-10-20T11:40:43;11.68;;;5.35;;
41556;SDS011;27720;51.992;5.890;2022-10-20T11:43:16;8.98;;;5.78;;
41556;SDS011;27720;51.992;5.890;2022-10-20T11:46:03;10.75;;;6.47;;
41556;SDS011;27720;51.992;5.890;2022-10-20T11:48:51;12.70;;;6.00;;
41556;SDS011;27720;51.992;5.890;2022-10-20T12:07:48;11.43;;;4.72;;
41556;SDS011;27720;51.992;5.890;2022-10-20T12:15:58;13.90;;;7.43;;
41556;SDS011;27720;51.992;5.890;2022-10-20T12:21:00;10.73;;;5.63;;
41556;SDS011;27720;51.992;5.890;2022-10-20T12:29:01;18.08;;;6.13;;
41556;SDS011;27720;51.992;5.890;2022-10-20T12:34:49;10.90;;;6.35;;
41556;SDS011;27720;51.992;5.890;2022-10-20T12:37:18;14.65;;;7.85;;
41556;SDS011;27720;51.992;5.890;2022-10-20T12:39:47;11.75;;;6.00;;
41556;SDS011;27720;51.992;5.890;2022-10-20T12:42:27;9.18;;;5.65;;
41556;SDS011;27720;51.992;5.890;2022-10-20T12:44:54;9.48;;;5.97;;
41556;SDS011;27720;51.992;5.890;2022-10-20T12:47:26;13.75;;;5.75;;
41556;SDS011;27720;51.992;5.890;2022-10-20T12:52:30;13.73;;;7.53;;
41556;SDS011;27720;51.992;5.890;2022-10-20T12:55:13;12.93;;;6.97;;
41556;SDS011;27720;51.992;5.890;2022-10-20T12:57:42;13.82;;;6.60;;
41556;SDS011;27720;51.992;5.890;2022-10-20T13:02:46;14.13;;;6.60;;
41556;SDS011;27720;51.992;5.890;2022-10-20T13:15:26;11.98;;;6.93;;
41556;SDS011;27720;51.992;5.890;2022-10-20T13:18:05;10.65;;;6.38;;
